Sunday, November 19, 2017, 4:59 AM GMT
Back to Local

CYQI, Yarmouth, N. S.

Location: , , Canada Lat: 43.833
Local Time: 4:59 AM GMT ( 4:59 GMT) Lon: -66.083
Time Zone: GMT Elev: 141 ft

Show me the last for .
Show Coded

Time T Td Feel RH Dir Speed Gust Alt SLP Vis Weather Sky Remarks
2017-11-19 04:00 46 39 42 75 180° 8 - 29.73 29.74 15 FEW026 OVC080 None
2017-11-19 03:00 46 37 42 70 200° 8 - 29.77 29.78 15 OVC110 None
2017-11-19 02:00 45 34 41 65 200° 7 - 29.79 29.80 15 OVC110 None
2017-11-19 01:00 41 34 36 75 200° 7 - 29.79 29.80 15 OVC140 None
2017-11-19 00:00 39 34 34 80 210° 7 - 29.80 29.81 15 BKN110 OVC130 None
2017-11-18 23:00 39 32 36 75 230° 5 - 29.81 29.82 15 OVC130 None
2017-11-18 22:00 37 32 34 80 110° 5 - 29.79 29.80 15 OVC140 Pressure falling rapidly
2017-11-18 21:00 39 32 35 75 290° 6 - 29.83 29.83 15 BKN150 OVC210 None
2017-11-18 20:00 39 32 34 75 310° 7 - 29.81 29.82 15 FEW150 BKN210 None
2017-11-18 19:00 41 32 35 70 310° 10 - 29.82 29.83 15 FEW018 SCT210 None
2017-11-18 18:00 41 32 33 70 300° 14 - 29.83 29.83 15 FEW018 SCT210 None
2017-11-18 17:00 39 30 31 69 310° 14 - 29.83 29.84 15 SCT018 SCT210 None
2017-11-18 16:00 39 30 30 69 320° 18 - 29.85 29.86 15 BKN018 None
2017-11-18 15:00 37 28 26 69 320° 15 24 29.86 29.86 15 BKN018 None
2017-11-18 14:00 36 28 25 74 330° 17 - 29.85 29.86 15 BKN016 None
2017-11-18 13:00 36 28 25 74 350° 13 21 29.84 29.85 15 BKN018 None
2017-11-18 12:00 34 27 21 74 330° 18 26 29.83 29.84 15 BKN018 None
2017-11-18 11:00 34 27 21 74 320° 18 28 29.81 29.82 15 OVC018 None
2017-11-18 10:00 34 27 22 74 320° 23 - 29.81 29.81 15 OVC021 None
2017-11-18 09:00 34 27 20 74 320° 18 29 29.80 29.81 15 OVC022 None
2017-11-18 08:00 34 27 19 74 310° 22 33 29.77 29.78 15 OVC020 None
2017-11-18 07:00 34 27 19 74 320° 23 36 29.75 29.76 15 OVC021 None
2017-11-18 06:00 34 27 20 74 320° 21 32 29.76 29.76 15 OVC022 None
2017-11-18 05:00 34 27 19 74 320° 21 36 29.73 29.74 15 OVC020 None

Support USWX by starting your Amazon purchase here.